sensor_id;sensor_type;location;lat;lon;timestamp;P1;durP1;ratioP1;P2;durP2;ratioP2
35981;SDS011;22058;0.000;0.000;2023-11-19T00:01:41;0.73;;;0.55;;
35981;SDS011;22058;0.000;0.000;2023-11-19T00:04:08;0.40;;;0.40;;
35981;SDS011;22058;0.000;0.000;2023-11-19T00:06:34;0.30;;;0.30;;
35981;SDS011;22058;0.000;0.000;2023-11-19T00:09:00;0.50;;;0.50;;
35981;SDS011;22058;0.000;0.000;2023-11-19T00:11:26;0.73;;;0.57;;
35981;SDS011;22058;0.000;0.000;2023-11-19T00:13:52;0.40;;;0.40;;
35981;SDS011;22058;0.000;0.000;2023-11-19T00:16:18;0.77;;;0.40;;
35981;SDS011;22058;0.000;0.000;2023-11-19T00:18:44;0.80;;;0.45;;
35981;SDS011;22058;0.000;0.000;2023-11-19T00:21:11;0.40;;;0.38;;
35981;SDS011;22058;0.000;0.000;2023-11-19T00:23:37;0.40;;;0.40;;
35981;SDS011;22058;0.000;0.000;2023-11-19T00:26:03;0.57;;;0.50;;
35981;SDS011;22058;0.000;0.000;2023-11-19T00:28:31;0.28;;;0.28;;
35981;SDS011;22058;0.000;0.000;2023-11-19T00:30:58;0.70;;;0.40;;
35981;SDS011;22058;0.000;0.000;2023-11-19T00:33:24;0.40;;;0.40;;
35981;SDS011;22058;0.000;0.000;2023-11-19T00:35:50;0.30;;;0.30;;
35981;SDS011;22058;0.000;0.000;2023-11-19T00:38:17;0.30;;;0.30;;
35981;SDS011;22058;0.000;0.000;2023-11-19T00:40:43;0.50;;;0.50;;
35981;SDS011;22058;0.000;0.000;2023-11-19T00:43:09;0.38;;;0.38;;
35981;SDS011;22058;0.000;0.000;2023-11-19T00:45:35;0.32;;;0.30;;
35981;SDS011;22058;0.000;0.000;2023-11-19T00:48:01;0.55;;;0.50;;
35981;SDS011;22058;0.000;0.000;2023-11-19T00:50:27;0.43;;;0.30;;
35981;SDS011;22058;0.000;0.000;2023-11-19T00:52:54;0.30;;;0.30;;
35981;SDS011;22058;0.000;0.000;2023-11-19T00:55:20;0.43;;;0.43;;
35981;SDS011;22058;0.000;0.000;2023-11-19T00:57:46;0.40;;;0.40;;
35981;SDS011;22058;0.000;0.000;2023-11-19T01:00:12;0.60;;;0.38;;
35981;SDS011;22058;0.000;0.000;2023-11-19T01:02:44;0.50;;;0.50;;
35981;SDS011;22058;0.000;0.000;2023-11-19T01:05:10;0.45;;;0.40;;
35981;SDS011;22058;0.000;0.000;2023-11-19T01:07:39;0.50;;;0.50;;
35981;SDS011;22058;0.000;0.000;2023-11-19T01:10:05;0.65;;;0.60;;
35981;SDS011;22058;0.000;0.000;2023-11-19T01:12:33;1.10;;;0.63;;
35981;SDS011;22058;0.000;0.000;2023-11-19T01:14:59;0.30;;;0.30;;
35981;SDS011;22058;0.000;0.000;2023-11-19T01:17:26;0.40;;;0.40;;
35981;SDS011;22058;0.000;0.000;2023-11-19T01:19:52;0.45;;;0.40;;
35981;SDS011;22058;0.000;0.000;2023-11-19T01:22:18;0.40;;;0.40;;
35981;SDS011;22058;0.000;0.000;2023-11-19T01:24:44;0.45;;;0.45;;
35981;SDS011;22058;0.000;0.000;2023-11-19T01:27:10;0.50;;;0.50;;
35981;SDS011;22058;0.000;0.000;2023-11-19T01:29:36;0.30;;;0.30;;
35981;SDS011;22058;0.000;0.000;2023-11-19T01:32:03;0.50;;;0.50;;
35981;SDS011;22058;0.000;0.000;2023-11-19T01:34:29;0.52;;;0.52;;
35981;SDS011;22058;0.000;0.000;2023-11-19T01:36:55;0.40;;;0.40;;
35981;SDS011;22058;0.000;0.000;2023-11-19T01:39:21;0.55;;;0.55;;
35981;SDS011;22058;0.000;0.000;2023-11-19T01:41:48;0.30;;;0.30;;
35981;SDS011;22058;0.000;0.000;2023-11-19T01:44:14;0.38;;;0.38;;
35981;SDS011;22058;0.000;0.000;2023-11-19T01:46:40;0.25;;;0.25;;
35981;SDS011;22058;0.000;0.000;2023-11-19T01:49:08;0.40;;;0.40;;
35981;SDS011;22058;0.000;0.000;2023-11-19T01:51:34;0.60;;;0.43;;
35981;SDS011;22058;0.000;0.000;2023-11-19T01:54:00;0.47;;;0.47;;
35981;SDS011;22058;0.000;0.000;2023-11-19T01:56:27;0.40;;;0.40;;
35981;SDS011;22058;0.000;0.000;2023-11-19T01:58:55;0.40;;;0.40;;
35981;SDS011;22058;0.000;0.000;2023-11-19T02:01:22;0.40;;;0.40;;
35981;SDS011;22058;0.000;0.000;2023-11-19T02:03:49;0.20;;;0.20;;
35981;SDS011;22058;0.000;0.000;2023-11-19T02:06:15;0.85;;;0.45;;
35981;SDS011;22058;0.000;0.000;2023-11-19T02:08:42;0.50;;;0.50;;
35981;SDS011;22058;0.000;0.000;2023-11-19T02:11:08;0.45;;;0.45;;
35981;SDS011;22058;0.000;0.000;2023-11-19T02:13:36;0.50;;;0.50;;
35981;SDS011;22058;0.000;0.000;2023-11-19T02:16:03;0.30;;;0.30;;
35981;SDS011;22058;0.000;0.000;2023-11-19T02:18:29;1.33;;;0.68;;
35981;SDS011;22058;0.000;0.000;2023-11-19T02:20:59;0.47;;;0.47;;
35981;SDS011;22058;0.000;0.000;2023-11-19T02:23:28;0.77;;;0.30;;
35981;SDS011;22058;0.000;0.000;2023-11-19T02:28:22;0.40;;;0.40;;
35981;SDS011;22058;0.000;0.000;2023-11-19T02:30:49;0.45;;;0.45;;
35981;SDS011;22058;0.000;0.000;2023-11-19T02:33:15;0.60;;;0.60;;
35981;SDS011;22058;0.000;0.000;2023-11-19T02:35:41;0.55;;;0.55;;
35981;SDS011;22058;0.000;0.000;2023-11-19T02:38:07;0.50;;;0.40;;
35981;SDS011;22058;0.000;0.000;2023-11-19T02:40:34;0.52;;;0.50;;
35981;SDS011;22058;0.000;0.000;2023-11-19T02:43:00;0.80;;;0.40;;
35981;SDS011;22058;0.000;0.000;2023-11-19T02:45:29;0.60;;;0.60;;
35981;SDS011;22058;0.000;0.000;2023-11-19T02:47:56;0.45;;;0.45;;
35981;SDS011;22058;0.000;0.000;2023-11-19T02:50:22;0.60;;;0.55;;
35981;SDS011;22058;0.000;0.000;2023-11-19T02:52:52;1.95;;;0.50;;
35981;SDS011;22058;0.000;0.000;2023-11-19T02:55:19;0.77;;;0.70;;
35981;SDS011;22058;0.000;0.000;2023-11-19T02:57:45;0.63;;;0.50;;
35981;SDS011;22058;0.000;0.000;2023-11-19T03:00:17;0.40;;;0.40;;
35981;SDS011;22058;0.000;0.000;2023-11-19T03:02:43;0.73;;;0.70;;
35981;SDS011;22058;0.000;0.000;2023-11-19T03:05:19;0.70;;;0.60;;
35981;SDS011;22058;0.000;0.000;2023-11-19T03:07:45;0.40;;;0.40;;
35981;SDS011;22058;0.000;0.000;2023-11-19T03:10:12;0.47;;;0.47;;
35981;SDS011;22058;0.000;0.000;2023-11-19T03:12:41;0.40;;;0.40;;
35981;SDS011;22058;0.000;0.000;2023-11-19T03:15:08;0.50;;;0.50;;
35981;SDS011;22058;0.000;0.000;2023-11-19T03:17:44;0.55;;;0.32;;
35981;SDS011;22058;0.000;0.000;2023-11-19T03:20:10;4.28;;;0.82;;
35981;SDS011;22058;0.000;0.000;2023-11-19T03:22:42;3.42;;;0.70;;
35981;SDS011;22058;0.000;0.000;2023-11-19T03:25:09;1.10;;;0.73;;
35981;SDS011;22058;0.000;0.000;2023-11-19T03:27:38;0.88;;;0.45;;
35981;SDS011;22058;0.000;0.000;2023-11-19T03:30:07;2.10;;;0.68;;
35981;SDS011;22058;0.000;0.000;2023-11-19T03:32:34;1.17;;;0.60;;
35981;SDS011;22058;0.000;0.000;2023-11-19T03:35:03;1.48;;;0.80;;
35981;SDS011;22058;0.000;0.000;2023-11-19T03:37:29;0.80;;;0.50;;
35981;SDS011;22058;0.000;0.000;2023-11-19T03:39:57;1.58;;;0.70;;
35981;SDS011;22058;0.000;0.000;2023-11-19T03:42:27;0.90;;;0.57;;
35981;SDS011;22058;0.000;0.000;2023-11-19T03:44:55;0.70;;;0.70;;
35981;SDS011;22058;0.000;0.000;2023-11-19T03:47:21;1.38;;;0.50;;
35981;SDS011;22058;0.000;0.000;2023-11-19T03:49:48;0.40;;;0.40;;
35981;SDS011;22058;0.000;0.000;2023-11-19T03:52:14;0.88;;;0.60;;
35981;SDS011;22058;0.000;0.000;2023-11-19T03:54:40;0.30;;;0.30;;
35981;SDS011;22058;0.000;0.000;2023-11-19T03:57:06;0.40;;;0.30;;
35981;SDS011;22058;0.000;0.000;2023-11-19T03:59:32;1.40;;;1.30;;
35981;SDS011;22058;0.000;0.000;2023-11-19T04:01:59;0.75;;;0.60;;
35981;SDS011;22058;0.000;0.000;2023-11-19T04:04:28;0.52;;;0.40;;
35981;SDS011;22058;0.000;0.000;2023-11-19T04:06:55;0.52;;;0.52;;
35981;SDS011;22058;0.000;0.000;2023-11-19T04:09:21;0.68;;;0.57;;
35981;SDS011;22058;0.000;0.000;2023-11-19T04:11:48;1.25;;;0.50;;
35981;SDS011;22058;0.000;0.000;2023-11-19T04:14:14;0.95;;;0.70;;
35981;SDS011;22058;0.000;0.000;2023-11-19T04:16:43;0.88;;;0.70;;
35981;SDS011;22058;0.000;0.000;2023-11-19T04:19:09;0.95;;;0.60;;
35981;SDS011;22058;0.000;0.000;2023-11-19T04:21:35;0.93;;;0.60;;
35981;SDS011;22058;0.000;0.000;2023-11-19T04:24:01;0.82;;;0.70;;
35981;SDS011;22058;0.000;0.000;2023-11-19T04:26:27;1.90;;;0.57;;
35981;SDS011;22058;0.000;0.000;2023-11-19T04:28:54;1.23;;;0.70;;
35981;SDS011;22058;0.000;0.000;2023-11-19T04:31:20;1.05;;;0.57;;
35981;SDS011;22058;0.000;0.000;2023-11-19T04:33:46;0.60;;;0.50;;
35981;SDS011;22058;0.000;0.000;2023-11-19T04:36:12;2.50;;;0.70;;
35981;SDS011;22058;0.000;0.000;2023-11-19T04:38:39;1.25;;;1.17;;
35981;SDS011;22058;0.000;0.000;2023-11-19T04:41:06;1.15;;;0.70;;
35981;SDS011;22058;0.000;0.000;2023-11-19T04:43:33;1.05;;;0.50;;
35981;SDS011;22058;0.000;0.000;2023-11-19T04:45:59;1.38;;;0.68;;
35981;SDS011;22058;0.000;0.000;2023-11-19T04:48:25;1.27;;;0.80;;
35981;SDS011;22058;0.000;0.000;2023-11-19T04:50:51;0.95;;;0.88;;
35981;SDS011;22058;0.000;0.000;2023-11-19T04:53:17;1.30;;;0.60;;
35981;SDS011;22058;0.000;0.000;2023-11-19T04:55:44;1.08;;;0.60;;
35981;SDS011;22058;0.000;0.000;2023-11-19T04:58:10;2.05;;;0.90;;
35981;SDS011;22058;0.000;0.000;2023-11-19T05:00:36;1.02;;;0.60;;
35981;SDS011;22058;0.000;0.000;2023-11-19T05:03:02;0.52;;;0.50;;
35981;SDS011;22058;0.000;0.000;2023-11-19T05:05:28;0.77;;;0.60;;
35981;SDS011;22058;0.000;0.000;2023-11-19T05:07:54;0.98;;;0.68;;
35981;SDS011;22058;0.000;0.000;2023-11-19T05:10:21;1.60;;;0.82;;
35981;SDS011;22058;0.000;0.000;2023-11-19T05:12:47;2.22;;;0.98;;
35981;SDS011;22058;0.000;0.000;2023-11-19T05:15:13;1.83;;;1.15;;
35981;SDS011;22058;0.000;0.000;2023-11-19T05:17:39;2.50;;;0.70;;
35981;SDS011;22058;0.000;0.000;2023-11-19T05:20:06;1.23;;;0.60;;
35981;SDS011;22058;0.000;0.000;2023-11-19T05:22:39;0.98;;;0.70;;
35981;SDS011;22058;0.000;0.000;2023-11-19T05:25:06;0.85;;;0.52;;
35981;SDS011;22058;0.000;0.000;2023-11-19T05:27:32;2.25;;;0.77;;
35981;SDS011;22058;0.000;0.000;2023-11-19T05:29:58;1.73;;;0.73;;
35981;SDS011;22058;0.000;0.000;2023-11-19T05:32:24;0.82;;;0.63;;
35981;SDS011;22058;0.000;0.000;2023-11-19T05:34:50;1.88;;;0.57;;
35981;SDS011;22058;0.000;0.000;2023-11-19T05:37:16;0.60;;;0.60;;
35981;SDS011;22058;0.000;0.000;2023-11-19T05:39:44;1.42;;;1.33;;
35981;SDS011;22058;0.000;0.000;2023-11-19T05:42:10;1.52;;;1.02;;
35981;SDS011;22058;0.000;0.000;2023-11-19T05:44:36;2.22;;;0.88;;
35981;SDS011;22058;0.000;0.000;2023-11-19T05:47:03;0.93;;;0.80;;
35981;SDS011;22058;0.000;0.000;2023-11-19T05:49:29;1.50;;;0.70;;
35981;SDS011;22058;0.000;0.000;2023-11-19T05:51:55;1.95;;;1.00;;
35981;SDS011;22058;0.000;0.000;2023-11-19T05:54:22;1.10;;;0.70;;
35981;SDS011;22058;0.000;0.000;2023-11-19T05:56:48;1.25;;;1.15;;
35981;SDS011;22058;0.000;0.000;2023-11-19T05:59:15;2.08;;;0.73;;
35981;SDS011;22058;0.000;0.000;2023-11-19T06:01:43;1.42;;;1.13;;
35981;SDS011;22058;0.000;0.000;2023-11-19T06:04:09;1.55;;;0.90;;
35981;SDS011;22058;0.000;0.000;2023-11-19T06:06:38;1.20;;;0.77;;
35981;SDS011;22058;0.000;0.000;2023-11-19T06:09:05;1.50;;;0.90;;
35981;SDS011;22058;0.000;0.000;2023-11-19T06:11:34;1.45;;;1.00;;
35981;SDS011;22058;0.000;0.000;2023-11-19T06:14:01;2.17;;;0.90;;
35981;SDS011;22058;0.000;0.000;2023-11-19T06:16:30;1.52;;;0.80;;
35981;SDS011;22058;0.000;0.000;2023-11-19T06:18:56;3.00;;;1.00;;
35981;SDS011;22058;0.000;0.000;2023-11-19T06:21:23;1.98;;;1.52;;
35981;SDS011;22058;0.000;0.000;2023-11-19T06:23:50;2.20;;;0.95;;
35981;SDS011;22058;0.000;0.000;2023-11-19T06:26:17;2.70;;;0.88;;
35981;SDS011;22058;0.000;0.000;2023-11-19T06:28:43;1.42;;;0.90;;
35981;SDS011;22058;0.000;0.000;2023-11-19T06:31:09;1.95;;;0.80;;
35981;SDS011;22058;0.000;0.000;2023-11-19T06:33:36;2.03;;;0.73;;
35981;SDS011;22058;0.000;0.000;2023-11-19T06:36:02;1.95;;;1.02;;
35981;SDS011;22058;0.000;0.000;2023-11-19T06:38:28;1.42;;;0.80;;
35981;SDS011;22058;0.000;0.000;2023-11-19T06:40:54;1.75;;;0.90;;
35981;SDS011;22058;0.000;0.000;2023-11-19T06:43:20;2.40;;;1.00;;
35981;SDS011;22058;0.000;0.000;2023-11-19T06:45:46;1.48;;;1.10;;
35981;SDS011;22058;0.000;0.000;2023-11-19T06:48:12;1.85;;;1.30;;
35981;SDS011;22058;0.000;0.000;2023-11-19T06:50:39;3.28;;;1.30;;
35981;SDS011;22058;0.000;0.000;2023-11-19T06:53:05;3.17;;;1.20;;
35981;SDS011;22058;0.000;0.000;2023-11-19T06:55:35;2.63;;;1.23;;
35981;SDS011;22058;0.000;0.000;2023-11-19T06:58:01;1.92;;;0.88;;
35981;SDS011;22058;0.000;0.000;2023-11-19T07:00:28;2.50;;;1.20;;
35981;SDS011;22058;0.000;0.000;2023-11-19T07:02:54;2.03;;;1.23;;
35981;SDS011;22058;0.000;0.000;2023-11-19T07:05:21;2.25;;;1.23;;
35981;SDS011;22058;0.000;0.000;2023-11-19T07:07:48;2.53;;;1.52;;
35981;SDS011;22058;0.000;0.000;2023-11-19T07:10:14;3.17;;;1.08;;
35981;SDS011;22058;0.000;0.000;2023-11-19T07:12:40;2.30;;;1.00;;
35981;SDS011;22058;0.000;0.000;2023-11-19T07:15:07;1.38;;;0.90;;
35981;SDS011;22058;0.000;0.000;2023-11-19T07:17:38;4.68;;;1.48;;
35981;SDS011;22058;0.000;0.000;2023-11-19T07:20:08;2.03;;;0.90;;
35981;SDS011;22058;0.000;0.000;2023-11-19T07:22:37;2.08;;;1.17;;
35981;SDS011;22058;0.000;0.000;2023-11-19T07:25:03;2.05;;;1.05;;
35981;SDS011;22058;0.000;0.000;2023-11-19T07:27:30;1.85;;;1.60;;
35981;SDS011;22058;0.000;0.000;2023-11-19T07:29:56;4.07;;;1.30;;
35981;SDS011;22058;0.000;0.000;2023-11-19T07:32:22;3.25;;;1.05;;
35981;SDS011;22058;0.000;0.000;2023-11-19T07:34:49;1.58;;;1.00;;
35981;SDS011;22058;0.000;0.000;2023-11-19T07:37:15;2.72;;;1.23;;
35981;SDS011;22058;0.000;0.000;2023-11-19T07:39:42;1.90;;;0.82;;
35981;SDS011;22058;0.000;0.000;2023-11-19T07:42:08;2.22;;;0.90;;
35981;SDS011;22058;0.000;0.000;2023-11-19T07:44:34;3.50;;;1.40;;
35981;SDS011;22058;0.000;0.000;2023-11-19T07:47:00;4.18;;;1.33;;
35981;SDS011;22058;0.000;0.000;2023-11-19T07:49:26;1.95;;;1.15;;
35981;SDS011;22058;0.000;0.000;2023-11-19T07:51:52;3.03;;;1.20;;
35981;SDS011;22058;0.000;0.000;2023-11-19T07:54:18;2.47;;;1.15;;
35981;SDS011;22058;0.000;0.000;2023-11-19T07:56:46;2.50;;;1.75;;
35981;SDS011;22058;0.000;0.000;2023-11-19T07:59:12;2.78;;;1.00;;
35981;SDS011;22058;0.000;0.000;2023-11-19T08:01:38;3.38;;;1.52;;
35981;SDS011;22058;0.000;0.000;2023-11-19T08:04:04;3.40;;;1.67;;
35981;SDS011;22058;0.000;0.000;2023-11-19T08:06:31;2.28;;;1.45;;
35981;SDS011;22058;0.000;0.000;2023-11-19T08:08:57;2.10;;;1.13;;
35981;SDS011;22058;0.000;0.000;2023-11-19T08:11:24;4.40;;;1.88;;
35981;SDS011;22058;0.000;0.000;2023-11-19T08:13:50;2.88;;;1.23;;
35981;SDS011;22058;0.000;0.000;2023-11-19T08:16:17;2.10;;;1.10;;
35981;SDS011;22058;0.000;0.000;2023-11-19T08:18:43;4.05;;;1.20;;
35981;SDS011;22058;0.000;0.000;2023-11-19T08:21:09;2.55;;;1.40;;
35981;SDS011;22058;0.000;0.000;2023-11-19T08:23:36;3.47;;;2.05;;
35981;SDS011;22058;0.000;0.000;2023-11-19T08:26:03;3.42;;;1.88;;
35981;SDS011;22058;0.000;0.000;2023-11-19T08:28:29;1.48;;;0.93;;
35981;SDS011;22058;0.000;0.000;2023-11-19T08:30:56;5.28;;;1.42;;
35981;SDS011;22058;0.000;0.000;2023-11-19T08:33:23;2.75;;;1.63;;
35981;SDS011;22058;0.000;0.000;2023-11-19T08:35:50;3.50;;;1.30;;
35981;SDS011;22058;0.000;0.000;2023-11-19T08:38:16;3.58;;;1.70;;
35981;SDS011;22058;0.000;0.000;2023-11-19T08:40:42;2.25;;;1.25;;
35981;SDS011;22058;0.000;0.000;2023-11-19T08:43:08;5.30;;;1.42;;
35981;SDS011;22058;0.000;0.000;2023-11-19T08:45:34;2.83;;;1.15;;
35981;SDS011;22058;0.000;0.000;2023-11-19T08:48:01;2.35;;;1.13;;
35981;SDS011;22058;0.000;0.000;2023-11-19T08:50:27;2.47;;;1.08;;
35981;SDS011;22058;0.000;0.000;2023-11-19T08:52:53;2.22;;;1.23;;
35981;SDS011;22058;0.000;0.000;2023-11-19T08:55:19;1.67;;;1.10;;
35981;SDS011;22058;0.000;0.000;2023-11-19T08:57:45;2.28;;;1.13;;
35981;SDS011;22058;0.000;0.000;2023-11-19T09:00:12;2.35;;;1.40;;
35981;SDS011;22058;0.000;0.000;2023-11-19T09:02:39;2.85;;;1.40;;
35981;SDS011;22058;0.000;0.000;2023-11-19T09:05:05;2.20;;;1.20;;
35981;SDS011;22058;0.000;0.000;2023-11-19T09:07:35;2.13;;;1.30;;
35981;SDS011;22058;0.000;0.000;2023-11-19T09:10:01;2.58;;;1.67;;
35981;SDS011;22058;0.000;0.000;2023-11-19T09:12:30;3.03;;;1.23;;
35981;SDS011;22058;0.000;0.000;2023-11-19T09:14:56;2.50;;;1.42;;
35981;SDS011;22058;0.000;0.000;2023-11-19T09:17:22;3.97;;;1.40;;
35981;SDS011;22058;0.000;0.000;2023-11-19T09:19:48;2.92;;;1.25;;
35981;SDS011;22058;0.000;0.000;2023-11-19T09:22:14;2.60;;;1.67;;
35981;SDS011;22058;0.000;0.000;2023-11-19T09:24:41;2.88;;;1.23;;
35981;SDS011;22058;0.000;0.000;2023-11-19T09:27:09;2.83;;;1.45;;
35981;SDS011;22058;0.000;0.000;2023-11-19T09:29:35;3.53;;;1.60;;
35981;SDS011;22058;0.000;0.000;2023-11-19T09:32:01;2.97;;;1.80;;
35981;SDS011;22058;0.000;0.000;2023-11-19T09:34:28;2.17;;;1.65;;
35981;SDS011;22058;0.000;0.000;2023-11-19T09:36:54;4.32;;;1.90;;
35981;SDS011;22058;0.000;0.000;2023-11-19T09:39:20;4.47;;;1.55;;
35981;SDS011;22058;0.000;0.000;2023-11-19T09:41:46;6.80;;;1.40;;
35981;SDS011;22058;0.000;0.000;2023-11-19T09:44:12;3.42;;;1.60;;
35981;SDS011;22058;0.000;0.000;2023-11-19T09:46:42;2.42;;;1.42;;
35981;SDS011;22058;0.000;0.000;2023-11-19T09:49:09;2.38;;;1.85;;
35981;SDS011;22058;0.000;0.000;2023-11-19T09:51:36;3.53;;;1.80;;
35981;SDS011;22058;0.000;0.000;2023-11-19T09:54:02;3.08;;;1.30;;
35981;SDS011;22058;0.000;0.000;2023-11-19T09:56:31;2.63;;;1.67;;
35981;SDS011;22058;0.000;0.000;2023-11-19T09:58:59;2.78;;;1.45;;
35981;SDS011;22058;0.000;0.000;2023-11-19T10:01:25;1.75;;;1.40;;
35981;SDS011;22058;0.000;0.000;2023-11-19T10:03:51;2.35;;;1.50;;
35981;SDS011;22058;0.000;0.000;2023-11-19T10:06:20;1.67;;;1.10;;
35981;SDS011;22058;0.000;0.000;2023-11-19T10:08:47;2.58;;;1.38;;
35981;SDS011;22058;0.000;0.000;2023-11-19T10:11:13;4.47;;;1.70;;
35981;SDS011;22058;0.000;0.000;2023-11-19T10:13:40;2.85;;;1.30;;
35981;SDS011;22058;0.000;0.000;2023-11-19T10:16:08;4.40;;;1.20;;
35981;SDS011;22058;0.000;0.000;2023-11-19T10:18:36;3.28;;;1.33;;
35981;SDS011;22058;0.000;0.000;2023-11-19T10:21:06;2.25;;;1.25;;
35981;SDS011;22058;0.000;0.000;2023-11-19T10:23:53;3.17;;;1.52;;
35981;SDS011;22058;0.000;0.000;2023-11-19T10:26:22;3.15;;;1.55;;
35981;SDS011;22058;0.000;0.000;2023-11-19T10:28:48;4.65;;;1.95;;
35981;SDS011;22058;0.000;0.000;2023-11-19T10:31:15;3.35;;;1.65;;
35981;SDS011;22058;0.000;0.000;2023-11-19T10:33:41;2.47;;;1.20;;
35981;SDS011;22058;0.000;0.000;2023-11-19T10:36:10;2.22;;;1.25;;
35981;SDS011;22058;0.000;0.000;2023-11-19T10:38:37;1.77;;;1.25;;
35981;SDS011;22058;0.000;0.000;2023-11-19T10:41:03;3.70;;;1.95;;
35981;SDS011;22058;0.000;0.000;2023-11-19T10:43:30;4.65;;;1.73;;
35981;SDS011;22058;0.000;0.000;2023-11-19T10:46:13;2.20;;;1.25;;
35981;SDS011;22058;0.000;0.000;2023-11-19T10:48:39;4.10;;;1.92;;
35981;SDS011;22058;0.000;0.000;2023-11-19T10:51:06;3.50;;;1.45;;
35981;SDS011;22058;0.000;0.000;2023-11-19T10:53:36;3.55;;;1.65;;
35981;SDS011;22058;0.000;0.000;2023-11-19T10:56:04;3.63;;;1.73;;
35981;SDS011;22058;0.000;0.000;2023-11-19T10:58:33;5.97;;;2.00;;
35981;SDS011;22058;0.000;0.000;2023-11-19T11:01:03;5.57;;;1.80;;
35981;SDS011;22058;0.000;0.000;2023-11-19T11:03:35;3.80;;;1.80;;
35981;SDS011;22058;0.000;0.000;2023-11-19T11:06:04;2.90;;;1.77;;
35981;SDS011;22058;0.000;0.000;2023-11-19T11:08:30;5.07;;;1.58;;
35981;SDS011;22058;0.000;0.000;2023-11-19T11:10:57;2.53;;;1.70;;
35981;SDS011;22058;0.000;0.000;2023-11-19T11:13:25;4.63;;;2.03;;
35981;SDS011;22058;0.000;0.000;2023-11-19T11:15:56;3.15;;;2.00;;
35981;SDS011;22058;0.000;0.000;2023-11-19T11:18:25;3.40;;;1.75;;
35981;SDS011;22058;0.000;0.000;2023-11-19T11:21:02;2.72;;;1.60;;
35981;SDS011;22058;0.000;0.000;2023-11-19T11:29:01;3.72;;;2.00;;
35981;SDS011;22058;0.000;0.000;2023-11-19T11:34:13;4.70;;;1.92;;
35981;SDS011;22058;0.000;0.000;2023-11-19T11:36:57;4.90;;;2.88;;
35981;SDS011;22058;0.000;0.000;2023-11-19T11:39:28;3.70;;;1.63;;
35981;SDS011;22058;0.000;0.000;2023-11-19T11:44:59;3.58;;;1.77;;
35981;SDS011;22058;0.000;0.000;2023-11-19T11:47:25;2.60;;;1.10;;
35981;SDS011;22058;0.000;0.000;2023-11-19T11:49:52;3.47;;;1.27;;
35981;SDS011;22058;0.000;0.000;2023-11-19T11:52:18;3.25;;;1.75;;
35981;SDS011;22058;0.000;0.000;2023-11-19T11:54:44;3.67;;;1.58;;
35981;SDS011;22058;0.000;0.000;2023-11-19T11:57:11;3.75;;;1.40;;
35981;SDS011;22058;0.000;0.000;2023-11-19T12:02:11;4.18;;;2.05;;
35981;SDS011;22058;0.000;0.000;2023-11-19T12:04:38;3.33;;;1.95;;
35981;SDS011;22058;0.000;0.000;2023-11-19T12:07:15;3.92;;;2.05;;
35981;SDS011;22058;0.000;0.000;2023-11-19T12:09:41;3.38;;;1.88;;
35981;SDS011;22058;0.000;0.000;2023-11-19T12:12:22;3.45;;;1.67;;
35981;SDS011;22058;0.000;0.000;2023-11-19T12:19:59;3.22;;;1.60;;
35981;SDS011;22058;0.000;0.000;2023-11-19T12:22:26;2.95;;;1.25;;
35981;SDS011;22058;0.000;0.000;2023-11-19T12:24:53;3.25;;;1.92;;
35981;SDS011;22058;0.000;0.000;2023-11-19T12:27:20;3.15;;;1.55;;
35981;SDS011;22058;0.000;0.000;2023-11-19T12:29:48;2.17;;;1.52;;
35981;SDS011;22058;0.000;0.000;2023-11-19T12:32:14;2.60;;;1.70;;
35981;SDS011;22058;0.000;0.000;2023-11-19T12:34:40;3.60;;;1.98;;
35981;SDS011;22058;0.000;0.000;2023-11-19T12:37:07;4.07;;;1.75;;
35981;SDS011;22058;0.000;0.000;2023-11-19T12:39:35;4.05;;;1.70;;
35981;SDS011;22058;0.000;0.000;2023-11-19T12:42:01;2.75;;;1.70;;
35981;SDS011;22058;0.000;0.000;2023-11-19T12:44:27;5.32;;;2.38;;
35981;SDS011;22058;0.000;0.000;2023-11-19T12:47:02;3.95;;;1.83;;
35981;SDS011;22058;0.000;0.000;2023-11-19T12:49:29;4.07;;;1.52;;
35981;SDS011;22058;0.000;0.000;2023-11-19T12:51:55;3.60;;;1.48;;
35981;SDS011;22058;0.000;0.000;2023-11-19T12:54:37;4.50;;;2.15;;
35981;SDS011;22058;0.000;0.000;2023-11-19T12:57:04;2.95;;;1.85;;
35981;SDS011;22058;0.000;0.000;2023-11-19T12:59:31;3.78;;;1.73;;
35981;SDS011;22058;0.000;0.000;2023-11-19T13:01:57;3.00;;;1.98;;
35981;SDS011;22058;0.000;0.000;2023-11-19T13:04:27;2.85;;;1.60;;
35981;SDS011;22058;0.000;0.000;2023-11-19T13:06:55;3.63;;;1.70;;
35981;SDS011;22058;0.000;0.000;2023-11-19T13:09:22;3.13;;;1.60;;
35981;SDS011;22058;0.000;0.000;2023-11-19T13:11:52;3.83;;;1.63;;
35981;SDS011;22058;0.000;0.000;2023-11-19T13:14:18;3.33;;;1.63;;
35981;SDS011;22058;0.000;0.000;2023-11-19T13:16:44;4.75;;;1.77;;
35981;SDS011;22058;0.000;0.000;2023-11-19T13:19:12;3.55;;;1.73;;
35981;SDS011;22058;0.000;0.000;2023-11-19T13:21:38;3.38;;;1.50;;
35981;SDS011;22058;0.000;0.000;2023-11-19T13:24:07;4.15;;;1.73;;
35981;SDS011;22058;0.000;0.000;2023-11-19T13:26:34;4.00;;;1.92;;
35981;SDS011;22058;0.000;0.000;2023-11-19T13:29:00;4.40;;;1.95;;
35981;SDS011;22058;0.000;0.000;2023-11-19T13:31:26;5.88;;;2.13;;
35981;SDS011;22058;0.000;0.000;2023-11-19T13:33:53;3.85;;;1.23;;
35981;SDS011;22058;0.000;0.000;2023-11-19T13:36:19;3.38;;;1.67;;
35981;SDS011;22058;0.000;0.000;2023-11-19T13:38:45;2.72;;;1.63;;
35981;SDS011;22058;0.000;0.000;2023-11-19T13:41:12;4.82;;;1.80;;
35981;SDS011;22058;0.000;0.000;2023-11-19T13:43:39;2.75;;;1.63;;
35981;SDS011;22058;0.000;0.000;2023-11-19T13:46:05;5.38;;;1.77;;
35981;SDS011;22058;0.000;0.000;2023-11-19T13:48:31;5.80;;;1.85;;
35981;SDS011;22058;0.000;0.000;2023-11-19T13:50:58;2.20;;;1.50;;
35981;SDS011;22058;0.000;0.000;2023-11-19T13:53:24;3.17;;;1.98;;
35981;SDS011;22058;0.000;0.000;2023-11-19T13:55:51;2.63;;;1.58;;
35981;SDS011;22058;0.000;0.000;2023-11-19T13:58:18;3.28;;;1.67;;
35981;SDS011;22058;0.000;0.000;2023-11-19T14:00:44;4.43;;;2.33;;
35981;SDS011;22058;0.000;0.000;2023-11-19T14:03:11;2.90;;;1.98;;
35981;SDS011;22058;0.000;0.000;2023-11-19T14:05:38;3.08;;;2.17;;
35981;SDS011;22058;0.000;0.000;2023-11-19T14:08:06;3.17;;;1.50;;
35981;SDS011;22058;0.000;0.000;2023-11-19T14:10:37;5.70;;;1.50;;
35981;SDS011;22058;0.000;0.000;2023-11-19T14:13:04;2.75;;;1.90;;
35981;SDS011;22058;0.000;0.000;2023-11-19T14:15:30;2.92;;;1.40;;
35981;SDS011;22058;0.000;0.000;2023-11-19T14:17:56;2.28;;;1.60;;
35981;SDS011;22058;0.000;0.000;2023-11-19T14:20:23;2.88;;;1.77;;
35981;SDS011;22058;0.000;0.000;2023-11-19T14:22:49;3.65;;;1.55;;
35981;SDS011;22058;0.000;0.000;2023-11-19T14:25:16;4.72;;;2.47;;
35981;SDS011;22058;0.000;0.000;2023-11-19T14:27:43;3.33;;;1.63;;
35981;SDS011;22058;0.000;0.000;2023-11-19T14:30:12;4.20;;;1.90;;
35981;SDS011;22058;0.000;0.000;2023-11-19T14:32:39;2.58;;;1.45;;
35981;SDS011;22058;0.000;0.000;2023-11-19T14:35:06;3.75;;;1.77;;
35981;SDS011;22058;0.000;0.000;2023-11-19T14:37:32;4.70;;;1.88;;
35981;SDS011;22058;0.000;0.000;2023-11-19T14:39:59;3.80;;;2.25;;
35981;SDS011;22058;0.000;0.000;2023-11-19T14:42:26;2.33;;;1.38;;
35981;SDS011;22058;0.000;0.000;2023-11-19T14:44:52;3.40;;;1.85;;
35981;SDS011;22058;0.000;0.000;2023-11-19T14:47:19;4.68;;;1.58;;
35981;SDS011;22058;0.000;0.000;2023-11-19T14:49:45;3.80;;;1.77;;
35981;SDS011;22058;0.000;0.000;2023-11-19T14:52:12;3.80;;;1.80;;
35981;SDS011;22058;0.000;0.000;2023-11-19T14:54:38;4.80;;;2.33;;
35981;SDS011;22058;0.000;0.000;2023-11-19T14:57:05;2.67;;;1.80;;
35981;SDS011;22058;0.000;0.000;2023-11-19T14:59:34;2.65;;;1.75;;
35981;SDS011;22058;0.000;0.000;2023-11-19T15:02:00;5.50;;;1.80;;
35981;SDS011;22058;0.000;0.000;2023-11-19T15:04:27;3.53;;;2.10;;
35981;SDS011;22058;0.000;0.000;2023-11-19T15:06:56;2.92;;;1.73;;
35981;SDS011;22058;0.000;0.000;2023-11-19T15:09:22;2.45;;;1.58;;
35981;SDS011;22058;0.000;0.000;2023-11-19T15:11:49;4.07;;;1.70;;
35981;SDS011;22058;0.000;0.000;2023-11-19T15:14:15;3.25;;;1.95;;
35981;SDS011;22058;0.000;0.000;2023-11-19T15:16:44;3.88;;;1.85;;
35981;SDS011;22058;0.000;0.000;2023-11-19T15:19:10;3.83;;;1.58;;
35981;SDS011;22058;0.000;0.000;2023-11-19T15:21:37;2.90;;;1.83;;